createdAt,value
2022-09-15T00:01:38.775Z,1.90
2022-09-15T00:04:07.507Z,2.35
2022-09-15T00:06:36.817Z,1.95
2022-09-15T00:09:05.948Z,1.92
2022-09-15T00:11:37.975Z,2.10
2022-09-15T00:14:08.818Z,1.65
2022-09-15T00:16:37.823Z,1.77
2022-09-15T00:19:07.357Z,2.30
2022-09-15T00:21:39.382Z,1.80
2022-09-15T00:24:08.146Z,2.08
2022-09-15T00:26:37.733Z,1.90
2022-09-15T00:29:06.287Z,2.20
2022-09-15T00:31:34.557Z,1.67
2022-09-15T00:34:04.113Z,2.40
2022-09-15T00:36:32.909Z,2.15
2022-09-15T00:39:01.403Z,1.92
2022-09-15T00:41:30.328Z,2.03
2022-09-15T00:44:03.148Z,1.80
2022-09-15T00:46:34.389Z,2.13
2022-09-15T00:49:07.357Z,2.25
2022-09-15T00:51:40.837Z,2.25
2022-09-15T00:54:13.496Z,2.60
2022-09-15T00:56:44.128Z,2.60
2022-09-15T00:59:21.674Z,1.80
2022-09-15T01:01:57.046Z,1.90
2022-09-15T01:06:59.856Z,2.10
2022-09-15T01:09:32.528Z,2.60
2022-09-15T01:12:01.137Z,2.38
2022-09-15T01:14:30.842Z,2.13
2022-09-15T01:17:06.931Z,1.95
2022-09-15T01:20:20.987Z,2.17
2022-09-15T01:23:15.484Z,2.30
2022-09-15T01:26:14.407Z,2.03
2022-09-15T01:29:21.726Z,2.78
2022-09-15T01:32:15.880Z,2.50
2022-09-15T01:34:51.102Z,2.53
2022-09-15T01:37:27.721Z,2.10
2022-09-15T01:39:57.626Z,2.30
2022-09-15T01:42:26.767Z,2.30
2022-09-15T01:44:59.981Z,2.05
2022-09-15T01:47:31.210Z,1.85
2022-09-15T01:50:04.822Z,2.05
2022-09-15T01:52:34.274Z,1.92
2022-09-15T01:55:13.381Z,1.88
2022-09-15T01:57:41.759Z,2.50
2022-09-15T02:00:13.728Z,2.30
2022-09-15T02:02:48.796Z,2.05
2022-09-15T02:05:25.799Z,1.90
2022-09-15T02:08:05.036Z,2.20
2022-09-15T02:10:41.078Z,2.00
2022-09-15T02:13:17.032Z,2.40
2022-09-15T02:15:51.572Z,2.10
2022-09-15T02:18:34.678Z,2.20
2022-09-15T02:21:12.612Z,1.75
2022-09-15T02:23:47.557Z,2.08
2022-09-15T02:26:22.711Z,1.67
2022-09-15T02:28:53.510Z,1.42
2022-09-15T02:31:26.195Z,1.52
2022-09-15T02:34:00.719Z,2.00
2022-09-15T02:36:30.499Z,1.90
2022-09-15T02:39:03.729Z,1.70
2022-09-15T02:41:32.601Z,1.60
2022-09-15T02:44:00.851Z,1.73
2022-09-15T02:46:31.046Z,1.40
2022-09-15T02:48:59.244Z,1.40
2022-09-15T02:51:27.565Z,1.67
2022-09-15T02:53:55.844Z,1.58
2022-09-15T02:56:24.053Z,1.33
2022-09-15T02:58:52.378Z,1.75
2022-09-15T03:01:20.826Z,1.58
2022-09-15T03:03:50.540Z,1.30
2022-09-15T03:06:20.985Z,2.05
2022-09-15T03:08:51.823Z,1.38
2022-09-15T03:11:22.632Z,1.55
2022-09-15T03:13:55.680Z,1.48
2022-09-15T03:16:25.095Z,1.60
2022-09-15T03:18:55.974Z,1.73
2022-09-15T03:21:24.608Z,1.50
2022-09-15T03:23:52.798Z,1.50
2022-09-15T03:26:20.970Z,1.33
2022-09-15T03:28:50.111Z,1.50
2022-09-15T03:31:19.806Z,1.52
2022-09-15T03:33:49.134Z,1.40
2022-09-15T03:36:18.773Z,1.30
2022-09-15T03:38:46.984Z,1.30
2022-09-15T03:41:15.245Z,1.25
2022-09-15T03:43:43.508Z,1.27
2022-09-15T03:46:13.201Z,1.33
2022-09-15T03:48:41.586Z,1.20
2022-09-15T03:51:11.553Z,1.30
2022-09-15T03:53:42.755Z,1.30
2022-09-15T03:56:14.915Z,1.35
2022-09-15T03:58:43.358Z,1.52
2022-09-15T04:01:12.595Z,1.20
2022-09-15T04:03:46.343Z,1.60
2022-09-15T04:06:16.059Z,1.50
2022-09-15T04:08:45.787Z,1.10
2022-09-15T04:11:14.929Z,1.52
2022-09-15T04:13:44.055Z,1.20
2022-09-15T04:16:15.696Z,1.67
2022-09-15T04:18:44.564Z,1.35
2022-09-15T04:21:16.003Z,1.15
2022-09-15T04:23:46.320Z,1.35
2022-09-15T04:26:21.250Z,1.90
2022-09-15T04:28:49.457Z,1.45
2022-09-15T04:31:19.159Z,1.40
2022-09-15T04:33:48.696Z,1.23
2022-09-15T04:36:21.041Z,1.48
2022-09-15T04:38:51.710Z,1.35
2022-09-15T04:41:20.970Z,1.50
2022-09-15T04:43:49.336Z,1.60
2022-09-15T04:46:18.772Z,6.00
2022-09-15T04:48:48.850Z,2.75
2022-09-15T04:51:21.111Z,1.42
2022-09-15T04:53:51.535Z,1.63
2022-09-15T04:56:22.335Z,1.40
2022-09-15T04:58:53.822Z,1.55
2022-09-15T05:01:25.132Z,1.55
2022-09-15T05:03:54.596Z,1.20
2022-09-15T05:06:25.432Z,1.60
2022-09-15T05:08:56.867Z,1.52
2022-09-15T05:11:27.183Z,1.40
2022-09-15T05:13:55.996Z,1.38
2022-09-15T05:16:27.607Z,2.33
2022-09-15T05:18:58.224Z,1.48
2022-09-15T05:21:27.595Z,1.45
2022-09-15T05:23:57.528Z,1.30
2022-09-15T05:26:29.068Z,1.48
2022-09-15T05:28:57.844Z,1.40
2022-09-15T05:31:28.999Z,1.88
2022-09-15T05:33:57.911Z,2.00
2022-09-15T05:36:26.527Z,1.42
2022-09-15T05:38:57.527Z,1.38
2022-09-15T05:41:27.400Z,1.60
2022-09-15T05:43:57.989Z,1.50
2022-09-15T05:46:27.946Z,1.52
2022-09-15T05:48:58.382Z,1.30
2022-09-15T05:51:27.100Z,1.35
2022-09-15T05:53:56.796Z,1.58
2022-09-15T05:56:25.029Z,1.30
2022-09-15T05:58:53.440Z,1.55
2022-09-15T06:01:24.156Z,1.52
2022-09-15T06:03:53.054Z,1.17
2022-09-15T06:06:22.106Z,1.17
2022-09-15T06:08:58.035Z,1.10
2022-09-15T06:11:30.719Z,1.08
2022-09-15T06:14:01.151Z,1.30
2022-09-15T06:16:32.539Z,1.20
2022-09-15T06:19:01.469Z,1.80
2022-09-15T06:21:32.327Z,1.40
2022-09-15T06:24:03.306Z,1.25
2022-09-15T06:26:33.119Z,1.40
2022-09-15T06:29:02.917Z,1.25
2022-09-15T06:31:33.234Z,1.20
2022-09-15T06:34:03.708Z,1.67
2022-09-15T06:36:33.239Z,1.60
2022-09-15T06:39:01.532Z,1.33
2022-09-15T06:41:42.673Z,1.17
2022-09-15T06:44:21.113Z,2.00
2022-09-15T06:46:49.694Z,1.33
2022-09-15T06:49:18.347Z,1.60
2022-09-15T06:51:46.784Z,1.45
2022-09-15T06:54:17.009Z,1.60
2022-09-15T06:56:46.026Z,1.30
2022-09-15T06:59:15.540Z,1.40
2022-09-15T07:01:45.251Z,1.38
2022-09-15T07:04:13.502Z,1.20
2022-09-15T07:06:41.780Z,1.40
2022-09-15T07:09:11.992Z,1.33
2022-09-15T07:11:40.594Z,1.40
2022-09-15T07:14:09.346Z,1.50
2022-09-15T07:16:38.071Z,1.52
2022-09-15T07:19:07.973Z,1.63
2022-09-15T07:21:36.715Z,1.20
2022-09-15T07:24:07.695Z,1.23
2022-09-15T07:26:36.236Z,1.20
2022-09-15T07:29:06.949Z,1.25
2022-09-15T07:31:39.010Z,1.30
2022-09-15T07:34:09.084Z,1.48
2022-09-15T07:36:37.515Z,1.20
2022-09-15T07:39:06.706Z,1.13
2022-09-15T07:41:35.220Z,1.30
2022-09-15T07:44:04.010Z,1.30
2022-09-15T07:46:34.070Z,1.45
2022-09-15T07:49:03.835Z,1.60
2022-09-15T07:51:33.523Z,1.55
2022-09-15T07:54:02.008Z,1.60
2022-09-15T07:56:30.351Z,1.55
2022-09-15T07:58:58.918Z,1.40
2022-09-15T08:01:27.451Z,1.35
2022-09-15T08:03:56.070Z,2.85
2022-09-15T08:06:27.216Z,1.83
2022-09-15T08:09:00.729Z,1.83
2022-09-15T08:11:30.315Z,1.70
2022-09-15T08:14:03.400Z,1.77
2022-09-15T08:16:31.972Z,1.50
2022-09-15T08:19:00.624Z,1.83
2022-09-15T08:21:29.141Z,1.42
2022-09-15T08:24:01.314Z,1.83
2022-09-15T08:26:31.052Z,1.55
2022-09-15T08:29:00.592Z,1.58
2022-09-15T08:31:29.182Z,1.40
2022-09-15T08:33:57.873Z,7.50
2022-09-15T08:36:27.768Z,4.55
2022-09-15T08:38:57.973Z,3.92
2022-09-15T08:41:31.222Z,1.30
2022-09-15T08:44:08.345Z,1.63
2022-09-15T08:46:42.302Z,1.60
2022-09-15T08:49:35.525Z,1.50
2022-09-15T08:52:14.556Z,1.50
2022-09-15T08:54:44.328Z,1.20
2022-09-15T08:57:19.593Z,1.58
2022-09-15T08:59:47.923Z,1.77
2022-09-15T09:02:54.031Z,1.55
2022-09-15T09:05:55.450Z,1.67
2022-09-15T09:09:01.689Z,1.42
2022-09-15T09:11:48.301Z,1.42
2022-09-15T09:14:26.794Z,1.40
2022-09-15T09:17:15.262Z,1.17
2022-09-15T09:20:11.009Z,1.30
2022-09-15T09:22:42.793Z,1.70
2022-09-15T09:25:26.647Z,0.90
2022-09-15T09:30:28.954Z,0.77
2022-09-15T09:33:13.719Z,0.70
2022-09-15T09:35:46.315Z,0.50
2022-09-15T09:38:21.676Z,0.50
2022-09-15T09:40:52.007Z,0.60
2022-09-15T09:43:21.921Z,0.68
2022-09-15T09:45:50.496Z,0.50
2022-09-15T09:48:22.889Z,0.90
2022-09-15T09:50:51.588Z,0.52
2022-09-15T09:53:31.999Z,0.52
2022-09-15T09:56:24.277Z,0.65
2022-09-15T09:58:54.577Z,0.88
2022-09-15T10:01:26.281Z,0.93
2022-09-15T10:04:14.262Z,0.88
2022-09-15T10:06:42.673Z,0.73
2022-09-15T10:09:16.295Z,1.08
2022-09-15T10:11:47.981Z,0.70
2022-09-15T10:14:22.970Z,0.80
2022-09-15T10:17:04.310Z,0.93
2022-09-15T10:19:37.579Z,0.75
2022-09-15T10:22:06.427Z,0.80
2022-09-15T10:24:37.974Z,1.00
2022-09-15T10:27:19.108Z,0.95
2022-09-15T10:29:49.140Z,1.20
2022-09-15T10:32:26.694Z,1.00
2022-09-15T10:35:11.183Z,1.27
2022-09-15T10:37:59.120Z,1.40
2022-09-15T10:40:45.132Z,1.40
2022-09-15T10:43:38.585Z,1.60
2022-09-15T10:46:14.804Z,1.35
2022-09-15T10:48:57.554Z,1.88
2022-09-15T10:51:46.477Z,1.60
2022-09-15T10:54:48.647Z,2.13
2022-09-15T10:57:32.211Z,1.75
2022-09-15T11:00:07.448Z,2.13
2022-09-15T11:03:06.988Z,1.98
2022-09-15T11:05:49.697Z,2.28
2022-09-15T11:08:47.341Z,2.28
2022-09-15T11:11:26.193Z,2.38
2022-09-15T11:14:08.061Z,1.95
2022-09-15T11:16:51.629Z,2.47
2022-09-15T11:19:53.625Z,2.60
2022-09-15T11:22:26.622Z,2.20
2022-09-15T11:25:01.187Z,2.65
2022-09-15T11:27:35.551Z,2.65
2022-09-15T11:30:08.197Z,2.70
2022-09-15T11:32:45.280Z,3.03
2022-09-15T11:35:35.928Z,2.53
2022-09-15T11:38:23.655Z,2.53
2022-09-15T11:40:59.721Z,2.47
2022-09-15T11:43:35.505Z,2.42
2022-09-15T11:46:12.277Z,2.60
2022-09-15T11:48:45.967Z,2.50
2022-09-15T11:51:20.130Z,2.70
2022-09-15T11:53:55.108Z,3.00
2022-09-15T11:56:30.567Z,2.40
2022-09-15T11:59:07.693Z,2.60
2022-09-15T12:01:42.975Z,2.28
2022-09-15T12:04:17.318Z,3.30
2022-09-15T12:06:52.437Z,2.85
2022-09-15T12:09:22.330Z,3.10
2022-09-15T12:11:54.436Z,2.60
2022-09-15T12:14:30.090Z,2.78
2022-09-15T12:16:59.331Z,2.38
2022-09-15T12:19:49.983Z,2.97
2022-09-15T12:22:28.094Z,2.67
2022-09-15T12:25:03.611Z,2.90
2022-09-15T12:27:32.268Z,3.28
2022-09-15T12:30:01.749Z,3.10
2022-09-15T12:32:32.465Z,3.35
2022-09-15T12:35:13.578Z,3.17
2022-09-15T12:37:47.855Z,4.10
2022-09-15T12:40:36.470Z,3.65
2022-09-15T12:43:18.415Z,3.45
2022-09-15T12:45:58.339Z,3.25
2022-09-15T12:48:30.284Z,3.38
2022-09-15T12:51:02.187Z,3.25
2022-09-15T12:56:07.009Z,2.92
2022-09-15T12:58:39.164Z,2.80
2022-09-15T13:01:34.708Z,3.00
2022-09-15T13:04:52.517Z,3.40
2022-09-15T13:07:56.233Z,2.88
2022-09-15T13:10:34.731Z,3.42
2022-09-15T13:13:24.133Z,2.95
2022-09-15T13:15:54.733Z,2.97
2022-09-15T13:18:25.040Z,2.75
2022-09-15T13:21:03.435Z,2.80
2022-09-15T13:23:39.339Z,2.70
2022-09-15T13:26:16.639Z,3.00
2022-09-15T13:28:45.462Z,2.60
2022-09-15T13:31:29.703Z,2.40
2022-09-15T13:38:20.245Z,2.63
2022-09-15T13:41:26.136Z,2.88
2022-09-15T13:44:35.205Z,2.40
2022-09-15T13:47:27.574Z,2.85
2022-09-15T13:50:07.286Z,2.10
2022-09-15T13:53:16.529Z,2.30
2022-09-15T13:55:46.481Z,2.17
2022-09-15T14:01:11.438Z,2.20
2022-09-15T14:03:46.395Z,2.63
2022-09-15T14:06:19.026Z,2.65
2022-09-15T14:08:51.617Z,2.20
2022-09-15T14:11:27.859Z,4.03
2022-09-15T14:14:00.449Z,2.80
2022-09-15T14:16:35.453Z,2.53
2022-09-15T14:19:30.412Z,2.35
2022-09-15T14:21:59.188Z,2.70
2022-09-15T14:24:30.083Z,2.67
2022-09-15T14:27:03.467Z,2.50
2022-09-15T14:29:33.481Z,2.33
2022-09-15T14:32:03.998Z,2.35
2022-09-15T14:34:37.124Z,2.55
2022-09-15T14:37:08.823Z,2.50
2022-09-15T14:39:40.208Z,2.10
2022-09-15T14:42:21.711Z,2.53
2022-09-15T14:47:43.250Z,2.20
2022-09-15T14:50:16.628Z,1.90
2022-09-15T14:52:49.137Z,1.90
2022-09-15T14:55:23.773Z,2.00
2022-09-15T15:00:30.762Z,2.00
2022-09-15T15:03:17.536Z,2.20
2022-09-15T15:05:58.059Z,2.00
2022-09-15T15:08:38.068Z,2.15
2022-09-15T15:11:08.331Z,2.53
2022-09-15T15:13:39.752Z,2.22
2022-09-15T15:16:17.236Z,2.13
2022-09-15T15:18:45.682Z,2.20
2022-09-15T15:21:35.768Z,2.67
2022-09-15T15:24:15.965Z,2.30
2022-09-15T15:26:49.038Z,2.10
2022-09-15T15:29:43.021Z,2.80
2022-09-15T15:32:15.489Z,2.50
2022-09-15T15:34:50.948Z,2.33
2022-09-15T15:37:28.421Z,2.50
2022-09-15T15:39:57.829Z,2.60
2022-09-15T15:42:28.442Z,2.40
2022-09-15T15:45:03.808Z,2.60
2022-09-15T15:47:37.186Z,2.55
2022-09-15T15:50:14.294Z,2.20
2022-09-15T15:52:43.869Z,2.60
2022-09-15T15:55:15.658Z,2.35
2022-09-15T15:57:44.414Z,2.33
2022-09-15T16:00:21.723Z,2.22
2022-09-15T16:02:53.109Z,2.50
2022-09-15T16:05:23.134Z,2.55
2022-09-15T16:07:53.447Z,2.35
2022-09-15T16:10:24.923Z,2.50
2022-09-15T16:12:53.188Z,2.30
2022-09-15T16:15:22.756Z,2.67
2022-09-15T16:17:52.622Z,2.63
2022-09-15T16:20:21.486Z,2.55
2022-09-15T16:22:49.824Z,2.47
2022-09-15T16:25:23.999Z,2.50
2022-09-15T16:27:52.471Z,2.83
2022-09-15T16:30:21.678Z,2.22
2022-09-15T16:32:50.117Z,2.33
2022-09-15T16:35:36.361Z,2.40
2022-09-15T16:38:04.835Z,2.83
2022-09-15T16:40:33.271Z,2.58
2022-09-15T16:43:02.203Z,2.65
2022-09-15T16:45:38.007Z,2.38
2022-09-15T16:48:09.132Z,2.55
2022-09-15T16:50:40.170Z,12.27
2022-09-15T16:53:15.724Z,6.03
2022-09-15T16:55:46.688Z,3.28
2022-09-15T16:58:16.940Z,2.38
2022-09-15T17:00:48.223Z,2.20
2022-09-15T17:03:19.680Z,2.28
2022-09-15T17:05:51.385Z,3.10
2022-09-15T17:08:21.855Z,2.60
2022-09-15T17:10:50.650Z,2.42
2022-09-15T17:13:25.210Z,2.70
2022-09-15T17:15:56.578Z,2.92
2022-09-15T17:18:25.890Z,2.97
2022-09-15T17:20:55.604Z,3.30
2022-09-15T17:23:27.707Z,2.65
2022-09-15T17:25:59.013Z,2.65
2022-09-15T17:28:29.219Z,3.05
2022-09-15T17:31:00.365Z,2.60
2022-09-15T17:33:30.984Z,2.92
2022-09-15T17:36:01.448Z,2.60
2022-09-15T17:38:29.760Z,2.60
2022-09-15T17:40:58.742Z,17.17
2022-09-15T17:43:29.438Z,13.55
2022-09-15T17:45:58.118Z,3.65
2022-09-15T17:48:26.825Z,3.20
2022-09-15T17:50:55.093Z,2.80
2022-09-15T17:53:27.168Z,2.58
2022-09-15T17:55:57.113Z,3.10
2022-09-15T17:58:26.755Z,3.30
2022-09-15T18:00:55.589Z,3.40
2022-09-15T18:03:27.822Z,3.30
2022-09-15T18:05:58.308Z,3.17
2022-09-15T18:08:28.847Z,3.25
2022-09-15T18:10:57.380Z,3.05
2022-09-15T18:13:28.202Z,2.80
2022-09-15T18:15:57.005Z,3.20
2022-09-15T18:18:28.255Z,2.97
2022-09-15T18:20:57.892Z,3.08
2022-09-15T18:23:29.782Z,3.33
2022-09-15T18:25:58.485Z,3.40
2022-09-15T18:28:27.895Z,3.40
2022-09-15T18:30:57.179Z,3.70
2022-09-15T18:33:27.280Z,3.70
2022-09-15T18:35:58.794Z,3.53
2022-09-15T18:38:28.738Z,3.67
2022-09-15T18:40:58.405Z,4.35
2022-09-15T18:43:28.728Z,3.55
2022-09-15T18:46:00.063Z,3.30
2022-09-15T18:48:28.742Z,3.05
2022-09-15T18:50:57.020Z,3.53
2022-09-15T18:53:26.289Z,3.40
2022-09-15T18:55:56.120Z,3.20
2022-09-15T18:58:24.380Z,4.40
2022-09-15T19:00:52.840Z,3.95
2022-09-15T19:03:21.092Z,3.47
2022-09-15T19:05:50.525Z,3.05
2022-09-15T19:08:18.981Z,2.88
2022-09-15T19:10:47.860Z,2.80
2022-09-15T19:13:17.706Z,2.80
2022-09-15T19:15:48.194Z,2.78
2022-09-15T19:18:18.763Z,3.25
2022-09-15T19:20:47.086Z,2.80
2022-09-15T19:23:15.998Z,3.10
2022-09-15T19:25:44.331Z,3.20
2022-09-15T19:28:12.607Z,3.47
2022-09-15T19:30:42.606Z,3.50
2022-09-15T19:33:11.063Z,4.50
2022-09-15T19:35:42.947Z,3.47
2022-09-15T19:38:11.370Z,3.92
2022-09-15T19:40:39.648Z,5.50
2022-09-15T19:43:07.988Z,4.25
2022-09-15T19:45:36.466Z,3.80
2022-09-15T19:48:06.244Z,3.83
2022-09-15T19:50:34.552Z,3.50
2022-09-15T19:53:02.828Z,3.80
2022-09-15T19:55:31.312Z,3.55
2022-09-15T19:57:59.707Z,3.83
2022-09-15T20:00:28.249Z,4.38
2022-09-15T20:02:56.616Z,3.03
2022-09-15T20:05:26.662Z,3.40
2022-09-15T20:07:54.947Z,3.05
2022-09-15T20:10:23.209Z,3.20
2022-09-15T20:12:52.599Z,3.38
2022-09-15T20:15:21.243Z,3.60
2022-09-15T20:17:49.546Z,3.47
2022-09-15T20:20:17.945Z,3.78
2022-09-15T20:22:47.805Z,3.72
2022-09-15T20:25:16.143Z,3.63
2022-09-15T20:27:44.735Z,3.75
2022-09-15T20:30:14.272Z,3.67
2022-09-15T20:32:42.644Z,4.50
2022-09-15T20:35:10.881Z,4.00
2022-09-15T20:37:39.527Z,3.95
2022-09-15T20:40:10.247Z,4.10
2022-09-15T20:42:39.061Z,3.50
2022-09-15T20:45:09.380Z,4.28
2022-09-15T20:47:37.581Z,4.28
2022-09-15T20:50:06.914Z,4.20
2022-09-15T20:52:38.430Z,5.35
2022-09-15T20:55:09.683Z,4.20
2022-09-15T20:57:37.914Z,3.95
2022-09-15T21:00:09.169Z,4.38
2022-09-15T21:02:37.817Z,4.28
2022-09-15T21:05:06.640Z,4.18
2022-09-15T21:07:34.938Z,3.70
2022-09-15T21:10:03.233Z,3.75
2022-09-15T21:12:33.905Z,4.07
2022-09-15T21:15:03.714Z,3.55
2022-09-15T21:17:32.170Z,3.83
2022-09-15T21:20:00.424Z,3.92
2022-09-15T21:22:28.645Z,3.33
2022-09-15T21:24:56.917Z,4.13
2022-09-15T21:27:28.887Z,3.60
2022-09-15T21:29:59.091Z,3.83
2022-09-15T21:32:27.459Z,4.00
2022-09-15T21:34:55.916Z,4.13
2022-09-15T21:37:26.869Z,3.60
2022-09-15T21:39:55.870Z,4.18
2022-09-15T21:42:24.990Z,3.50
2022-09-15T21:44:54.372Z,3.83
2022-09-15T21:47:24.783Z,3.67
2022-09-15T21:49:53.126Z,4.03
2022-09-15T21:52:21.406Z,3.85
2022-09-15T21:54:49.693Z,3.53
2022-09-15T21:57:17.939Z,3.60
2022-09-15T21:59:46.585Z,4.03
2022-09-15T22:02:15.474Z,3.83
2022-09-15T22:04:45.454Z,3.88
2022-09-15T22:07:15.257Z,3.85
2022-09-15T22:09:43.552Z,4.00
2022-09-15T22:12:11.943Z,3.65
2022-09-15T22:14:40.214Z,3.58
2022-09-15T22:17:08.579Z,4.05
2022-09-15T22:19:37.250Z,3.40
2022-09-15T22:22:07.835Z,3.55
2022-09-15T22:24:36.130Z,3.85
2022-09-15T22:27:04.518Z,3.50
2022-09-15T22:29:32.756Z,3.53
2022-09-15T22:32:01.085Z,3.60
2022-09-15T22:34:29.593Z,3.20
2022-09-15T22:36:57.965Z,3.65
2022-09-15T22:39:50.309Z,4.25
2022-09-15T22:42:16.172Z,3.40
2022-09-15T22:44:44.463Z,3.90
2022-09-15T22:47:13.086Z,3.47
2022-09-15T22:49:41.563Z,4.00
2022-09-15T22:52:10.172Z,3.80
2022-09-15T22:54:40.006Z,3.90
2022-09-15T22:57:08.382Z,3.35
2022-09-15T22:59:36.612Z,3.80
2022-09-15T23:02:05.019Z,3.92
2022-09-15T23:04:33.320Z,4.07
2022-09-15T23:07:01.587Z,3.58
2022-09-15T23:09:29.987Z,3.80
2022-09-15T23:11:59.566Z,3.50
2022-09-15T23:14:28.069Z,3.40
2022-09-15T23:16:56.310Z,3.72
2022-09-15T23:19:24.509Z,3.58
2022-09-15T23:21:52.939Z,4.18
2022-09-15T23:24:21.507Z,3.47
2022-09-15T23:26:49.742Z,3.13
2022-09-15T23:29:19.404Z,3.30
2022-09-15T23:31:47.801Z,3.42
2022-09-15T23:34:16.295Z,3.60
2022-09-15T23:36:44.574Z,3.83
2022-09-15T23:39:12.950Z,3.47
2022-09-15T23:41:41.282Z,3.63
2022-09-15T23:44:09.929Z,3.50
2022-09-15T23:46:39.605Z,3.83
2022-09-15T23:49:08.001Z,3.83
2022-09-15T23:51:36.270Z,3.55
2022-09-15T23:54:04.894Z,3.50
2022-09-15T23:56:33.836Z,3.38
2022-09-15T23:59:02.218Z,3.67
